createdAt,value
2023-04-21T00:02:27.398Z,8.70
2023-04-21T00:04:56.360Z,8.60
2023-04-21T00:07:24.717Z,8.60
2023-04-21T00:09:52.640Z,8.70
2023-04-21T00:12:20.673Z,8.80
2023-04-21T00:14:48.465Z,8.80
2023-04-21T00:17:17.651Z,8.80
2023-04-21T00:19:45.824Z,8.80
2023-04-21T00:22:14.924Z,8.70
2023-04-21T00:24:42.751Z,8.60
2023-04-21T00:27:11.377Z,8.40
2023-04-21T00:29:40.326Z,8.40
2023-04-21T00:32:10.099Z,8.30
2023-04-21T00:34:39.342Z,8.40
2023-04-21T00:37:07.118Z,8.50
2023-04-21T00:39:34.950Z,8.60
2023-04-21T00:42:02.765Z,8.60
2023-04-21T00:44:30.642Z,8.50
2023-04-21T00:46:58.566Z,8.50
2023-04-21T00:49:27.949Z,8.50
2023-04-21T00:51:57.240Z,8.40
2023-04-21T00:54:26.677Z,8.50
2023-04-21T00:56:56.041Z,8.50
2023-04-21T00:59:23.894Z,8.60
2023-04-21T01:01:52.872Z,8.60
2023-04-21T01:04:20.761Z,8.50
2023-04-21T01:06:48.953Z,8.40
2023-04-21T01:09:18.920Z,8.30
2023-04-21T01:12:02.118Z,8.40
2023-04-21T01:14:30.124Z,8.30
2023-04-21T01:16:59.148Z,8.30
2023-04-21T01:19:31.225Z,8.30
2023-04-21T01:22:01.155Z,8.40
2023-04-21T01:24:39.712Z,8.40
2023-04-21T01:27:11.438Z,8.50
2023-04-21T01:29:41.137Z,8.60
2023-04-21T01:32:11.167Z,8.50
2023-04-21T01:34:59.863Z,8.50
2023-04-21T01:37:31.862Z,8.30
2023-04-21T01:40:02.518Z,8.20
2023-04-21T01:42:31.248Z,8.30
2023-04-21T01:44:59.172Z,8.40
2023-04-21T01:47:27.363Z,8.50
2023-04-21T01:49:55.174Z,8.60
2023-04-21T01:52:23.069Z,8.60
2023-04-21T01:54:52.280Z,8.60
2023-04-21T01:57:20.272Z,8.80
2023-04-21T01:59:48.299Z,8.90
2023-04-21T02:02:16.344Z,8.90
2023-04-21T02:04:44.215Z,8.90
2023-04-21T02:07:11.998Z,8.90
2023-04-21T02:09:39.797Z,9.00
2023-04-21T02:12:09.229Z,9.00
2023-04-21T02:14:38.268Z,9.00
2023-04-21T02:17:07.000Z,8.90
2023-04-21T02:19:34.907Z,8.90
2023-04-21T02:22:03.005Z,9.00
2023-04-21T02:24:30.842Z,8.90
2023-04-21T02:26:58.639Z,8.90
2023-04-21T02:29:27.856Z,8.80
2023-04-21T02:32:02.904Z,8.60
2023-04-21T02:34:33.354Z,8.70
2023-04-21T02:37:01.296Z,8.80
2023-04-21T02:39:29.108Z,8.80
2023-04-21T02:41:57.211Z,8.80
2023-04-21T02:44:25.005Z,8.80
2023-04-21T02:46:54.359Z,8.80
2023-04-21T02:49:22.271Z,8.90
2023-04-21T02:51:50.211Z,8.90
2023-04-21T02:54:18.030Z,8.90
2023-04-21T02:56:46.186Z,8.80
2023-04-21T02:59:16.459Z,8.60
2023-04-21T03:01:44.574Z,8.60
2023-04-21T03:04:14.216Z,8.70
2023-04-21T03:06:42.104Z,8.70
2023-04-21T03:09:10.366Z,8.80
2023-04-21T03:11:38.164Z,8.90
2023-04-21T03:14:06.003Z,8.90
2023-04-21T03:16:33.960Z,8.90
2023-04-21T03:19:02.119Z,8.90
2023-04-21T03:21:31.545Z,9.00
2023-04-21T03:23:59.326Z,9.00
2023-04-21T03:26:27.144Z,9.00
2023-04-21T03:28:54.978Z,9.00
2023-04-21T03:31:22.848Z,8.90
2023-04-21T03:33:50.721Z,8.90
2023-04-21T03:36:18.549Z,8.90
2023-04-21T03:38:47.685Z,9.00
2023-04-21T03:41:15.543Z,8.90
2023-04-21T03:43:43.367Z,8.90
2023-04-21T03:46:19.216Z,8.90
2023-04-21T03:48:47.476Z,8.90
2023-04-21T03:51:15.384Z,9.00
2023-04-21T03:53:43.345Z,9.00
2023-04-21T03:56:12.655Z,9.10
2023-04-21T03:58:40.550Z,8.90
2023-04-21T04:01:08.400Z,8.80
2023-04-21T04:03:36.460Z,8.80
2023-04-21T04:06:04.479Z,8.80
2023-04-21T04:08:32.319Z,8.80
2023-04-21T04:11:00.269Z,8.80
2023-04-21T04:13:29.619Z,8.80
2023-04-21T04:15:58.591Z,8.80
2023-04-21T04:18:26.506Z,8.90
2023-04-21T04:20:54.271Z,8.90
2023-04-21T04:23:22.093Z,8.90
2023-04-21T04:25:51.845Z,8.90
2023-04-21T04:28:19.662Z,9.00
2023-04-21T04:30:48.751Z,9.00
2023-04-21T04:33:16.562Z,8.90
2023-04-21T04:35:44.347Z,8.80
2023-04-21T04:38:12.636Z,8.80
2023-04-21T04:40:40.514Z,8.70
2023-04-21T04:43:08.789Z,8.70
2023-04-21T04:45:37.354Z,8.50
2023-04-21T04:48:07.359Z,8.40
2023-04-21T04:50:35.338Z,8.40
2023-04-21T04:53:03.147Z,8.50
2023-04-21T04:55:30.927Z,8.50
2023-04-21T04:57:58.762Z,8.60
2023-04-21T05:00:26.798Z,8.70
2023-04-21T05:02:54.762Z,8.70
2023-04-21T05:05:24.833Z,8.70
2023-04-21T05:07:52.650Z,8.70
2023-04-21T05:10:20.625Z,8.80
2023-04-21T05:12:48.426Z,8.80
2023-04-21T05:15:16.257Z,8.80
2023-04-21T05:17:44.057Z,8.80
2023-04-21T05:20:12.530Z,8.90
2023-04-21T05:22:42.044Z,8.90
2023-04-21T05:25:12.628Z,9.00
2023-04-21T05:27:40.842Z,9.00
2023-04-21T05:30:09.816Z,9.00
2023-04-21T05:32:37.774Z,9.00
2023-04-21T05:35:06.234Z,9.00
2023-04-21T05:37:34.065Z,9.10
2023-04-21T05:40:03.549Z,9.10
2023-04-21T05:42:31.354Z,9.20
2023-04-21T05:44:59.242Z,9.20
2023-04-21T05:47:27.110Z,9.10
2023-04-21T05:49:55.090Z,9.00
2023-04-21T05:52:22.932Z,9.10
2023-04-21T05:54:50.890Z,9.00
2023-04-21T05:57:20.028Z,8.90
2023-04-21T05:59:47.853Z,8.90
2023-04-21T06:02:15.714Z,8.90
2023-04-21T06:04:43.841Z,8.90
2023-04-21T06:07:13.545Z,8.90
2023-04-21T06:09:42.100Z,8.80
2023-04-21T06:12:09.993Z,8.80
2023-04-21T06:14:39.146Z,8.80
2023-04-21T06:17:06.927Z,8.70
2023-04-21T06:19:38.387Z,8.60
2023-04-21T06:22:06.250Z,8.70
2023-04-21T06:24:34.154Z,8.90
2023-04-21T06:27:02.351Z,9.00
2023-04-21T06:29:30.177Z,9.00
2023-04-21T06:31:59.318Z,9.00
2023-04-21T06:34:27.133Z,9.00
2023-04-21T06:36:55.096Z,9.10
2023-04-21T06:39:22.921Z,9.30
2023-04-21T06:41:50.688Z,9.40
2023-04-21T06:44:18.731Z,9.50
2023-04-21T06:46:47.257Z,9.60
2023-04-21T06:49:16.635Z,9.70
2023-04-21T06:51:44.540Z,9.70
2023-04-21T06:54:12.346Z,9.80
2023-04-21T06:56:41.403Z,9.90
2023-04-21T06:59:09.284Z,9.90
2023-04-21T07:01:37.256Z,9.90
2023-04-21T07:04:06.826Z,9.90
2023-04-21T07:06:36.105Z,9.90
2023-04-21T07:09:03.934Z,9.90
2023-04-21T07:11:31.709Z,10.00
2023-04-21T07:14:02.263Z,10.10
2023-04-21T07:16:30.240Z,10.30
2023-04-21T07:18:58.046Z,10.30
2023-04-21T07:21:25.927Z,10.30
2023-04-21T07:23:55.082Z,10.40
2023-04-21T07:26:22.901Z,10.40
2023-04-21T07:28:52.398Z,10.60
2023-04-21T07:31:20.447Z,10.70
2023-04-21T07:33:48.302Z,10.70
2023-04-21T07:36:16.736Z,10.80
2023-04-21T07:38:44.693Z,10.90
2023-04-21T07:41:14.595Z,11.00
2023-04-21T07:43:42.476Z,10.90
2023-04-21T07:46:10.345Z,10.80
2023-04-21T07:48:38.149Z,10.70
2023-04-21T07:51:06.093Z,10.60
2023-04-21T07:53:34.009Z,10.70
2023-04-21T07:56:01.872Z,10.70
2023-04-21T07:58:31.074Z,10.70
2023-04-21T08:00:58.857Z,10.70
2023-04-21T08:03:26.998Z,10.80
2023-04-21T08:05:55.294Z,10.80
2023-04-21T08:08:23.359Z,10.80
2023-04-21T08:10:51.199Z,10.90
2023-04-21T08:13:20.933Z,10.90
2023-04-21T08:15:50.090Z,10.90
2023-04-21T08:18:21.220Z,10.90
2023-04-21T08:20:52.290Z,11.10
2023-04-21T08:23:20.417Z,11.30
2023-04-21T08:25:48.264Z,11.40
2023-04-21T08:28:16.102Z,11.60
2023-04-21T08:30:44.112Z,11.90
2023-04-21T08:33:14.401Z,12.00
2023-04-21T08:35:54.867Z,12.20
2023-04-21T08:38:30.277Z,12.20
2023-04-21T08:41:00.582Z,12.30
2023-04-21T08:43:29.487Z,12.30
2023-04-21T08:45:58.020Z,12.30
2023-04-21T08:48:28.881Z,12.50
2023-04-21T08:50:57.352Z,12.90
2023-04-21T08:53:25.227Z,13.10
2023-04-21T08:56:07.641Z,13.30
2023-04-21T08:58:39.081Z,13.70
2023-04-21T09:01:06.928Z,14.00
2023-04-21T09:03:36.557Z,14.10
2023-04-21T09:06:06.916Z,14.30
2023-04-21T09:08:35.875Z,14.40
2023-04-21T09:11:03.686Z,14.50
2023-04-21T09:13:33.061Z,14.50
2023-04-21T09:16:02.019Z,14.50
2023-04-21T09:18:35.238Z,14.40
2023-04-21T09:21:09.645Z,14.40
2023-04-21T09:23:42.504Z,14.40
2023-04-21T09:26:11.013Z,14.30
2023-04-21T09:28:42.691Z,14.10
2023-04-21T09:31:19.705Z,14.10
2023-04-21T09:36:22.420Z,13.90
2023-04-21T09:41:31.755Z,13.80
2023-04-21T09:44:01.651Z,13.70
2023-04-21T09:46:32.462Z,13.90
2023-04-21T09:49:02.170Z,14.10
2023-04-21T09:54:29.093Z,14.40
2023-04-21T09:57:01.655Z,14.40
2023-04-21T09:59:33.321Z,14.30
2023-04-21T10:02:02.178Z,14.70
2023-04-21T10:04:32.905Z,14.80
2023-04-21T10:07:02.751Z,14.70
2023-04-21T10:09:35.980Z,14.60
2023-04-21T10:12:06.917Z,14.50
2023-04-21T10:14:36.377Z,14.40
2023-04-21T10:17:06.130Z,14.20
2023-04-21T10:19:39.772Z,14.20
2023-04-21T10:22:10.503Z,14.20
2023-04-21T10:24:39.812Z,14.10
2023-04-21T10:27:11.149Z,14.00
2023-04-21T10:29:52.626Z,14.00
2023-04-21T10:32:40.127Z,13.90
2023-04-21T10:35:10.773Z,13.70
2023-04-21T10:37:42.287Z,13.70
2023-04-21T10:43:07.158Z,13.70
2023-04-21T10:45:35.010Z,13.80
2023-04-21T10:48:03.914Z,14.60
2023-04-21T10:50:32.752Z,15.30
2023-04-21T10:53:11.300Z,15.70
2023-04-21T10:55:42.138Z,15.60
2023-04-21T10:58:10.595Z,15.70
2023-04-21T11:00:39.290Z,15.80
2023-04-21T11:03:08.919Z,15.80
2023-04-21T11:05:39.334Z,15.70
2023-04-21T11:08:12.296Z,15.70
2023-04-21T11:10:49.081Z,15.70
2023-04-21T11:13:17.329Z,15.70
2023-04-21T11:15:58.304Z,15.30
2023-04-21T11:18:41.168Z,15.30
2023-04-21T11:21:10.654Z,15.50
2023-04-21T11:23:43.036Z,15.80
2023-04-21T11:26:10.861Z,16.00
2023-04-21T11:28:41.389Z,16.50
2023-04-21T11:31:09.431Z,17.00
2023-04-21T11:33:37.811Z,17.10
2023-04-21T11:36:07.007Z,17.10
2023-04-21T11:38:39.915Z,17.00
2023-04-21T11:41:10.505Z,17.00
2023-04-21T11:43:39.212Z,17.30
2023-04-21T11:46:19.472Z,17.30
2023-04-21T11:48:47.331Z,17.30
2023-04-21T11:51:17.577Z,17.10
2023-04-21T11:53:48.782Z,17.10
2023-04-21T11:56:21.622Z,17.20
2023-04-21T11:58:51.600Z,17.40
2023-04-21T12:01:20.744Z,17.90
2023-04-21T12:03:53.271Z,17.90
2023-04-21T12:06:22.736Z,17.70
2023-04-21T12:08:55.848Z,17.40
2023-04-21T12:11:25.932Z,17.00
2023-04-21T12:13:53.719Z,16.70
2023-04-21T12:16:21.617Z,16.70
2023-04-21T12:18:49.933Z,17.00
2023-04-21T12:21:17.727Z,17.10
2023-04-21T12:23:45.788Z,16.90
2023-04-21T12:26:13.831Z,17.40
2023-04-21T12:28:42.955Z,17.90
2023-04-21T12:31:11.339Z,18.10
2023-04-21T12:33:39.226Z,18.20
2023-04-21T12:36:07.467Z,17.90
2023-04-21T12:38:35.322Z,17.40
2023-04-21T12:41:03.126Z,17.10
2023-04-21T12:43:30.965Z,17.10
2023-04-21T12:46:00.985Z,17.00
2023-04-21T12:48:28.845Z,17.10
2023-04-21T12:50:56.660Z,17.20
2023-04-21T12:53:24.464Z,17.30
2023-04-21T12:56:03.426Z,17.50
2023-04-21T12:58:32.830Z,17.90
2023-04-21T13:01:02.075Z,18.30
2023-04-21T13:03:30.072Z,18.50
2023-04-21T13:05:58.465Z,19.10
2023-04-21T13:08:26.520Z,19.70
2023-04-21T13:10:55.460Z,19.90
2023-04-21T13:13:23.477Z,19.80
2023-04-21T13:15:51.308Z,19.60
2023-04-21T13:18:20.757Z,19.40
2023-04-21T13:20:48.594Z,19.80
2023-04-21T13:23:16.569Z,20.30
2023-04-21T13:25:45.700Z,20.60
2023-04-21T13:28:14.430Z,20.70
2023-04-21T13:30:42.350Z,20.80
2023-04-21T13:33:11.311Z,21.30
2023-04-21T13:35:40.661Z,21.20
2023-04-21T13:38:08.554Z,21.10
2023-04-21T13:40:36.636Z,21.20
2023-04-21T13:43:04.809Z,21.20
2023-04-21T13:45:32.751Z,21.40
2023-04-21T13:48:00.568Z,21.50
2023-04-21T13:50:28.401Z,21.90
2023-04-21T13:52:57.617Z,22.00
2023-04-21T13:55:26.196Z,22.10
2023-04-21T13:57:54.204Z,21.90
2023-04-21T14:00:22.575Z,22.00
2023-04-21T14:02:50.642Z,22.30
2023-04-21T14:05:18.895Z,22.30
2023-04-21T14:07:46.786Z,22.30
2023-04-21T14:10:16.040Z,22.10
2023-04-21T14:12:44.949Z,22.20
2023-04-21T14:15:13.303Z,22.50
2023-04-21T14:17:41.338Z,22.60
2023-04-21T14:20:10.294Z,22.40
2023-04-21T14:22:38.118Z,22.90
2023-04-21T14:25:06.665Z,23.00
2023-04-21T14:27:35.830Z,22.90
2023-04-21T14:30:03.706Z,23.10
2023-04-21T14:32:31.610Z,23.10
2023-04-21T14:35:03.106Z,23.30
2023-04-21T14:37:30.952Z,23.10
2023-04-21T14:39:58.838Z,23.00
2023-04-21T14:42:26.722Z,22.90
2023-04-21T14:44:55.865Z,22.90
2023-04-21T14:47:23.789Z,23.10
2023-04-21T14:49:55.036Z,23.50
2023-04-21T14:52:25.725Z,24.10
2023-04-21T14:54:53.824Z,24.30
2023-04-21T14:57:22.551Z,24.20
2023-04-21T14:59:51.324Z,24.10
2023-04-21T15:02:21.967Z,24.10
2023-04-21T15:04:51.025Z,23.90
2023-04-21T15:07:23.855Z,23.40
2023-04-21T15:09:52.768Z,23.30
2023-04-21T15:12:20.868Z,23.10
2023-04-21T15:14:48.650Z,23.50
2023-04-21T15:17:16.590Z,23.50
2023-04-21T15:19:45.734Z,23.40
2023-04-21T15:22:15.010Z,23.50
2023-04-21T15:24:42.892Z,23.40
2023-04-21T15:27:10.760Z,23.40
2023-04-21T15:29:38.636Z,23.10
2023-04-21T15:32:06.586Z,23.00
2023-04-21T15:34:34.385Z,22.90
2023-04-21T15:37:03.514Z,23.00
2023-04-21T15:39:31.330Z,23.20
2023-04-21T15:41:59.748Z,22.90
2023-04-21T15:44:27.658Z,22.70
2023-04-21T15:46:55.632Z,22.90
2023-04-21T15:49:33.019Z,22.60
2023-04-21T15:52:01.040Z,22.40
2023-04-21T15:54:31.156Z,22.40
2023-04-21T15:56:59.199Z,22.30
2023-04-21T15:59:27.148Z,22.20
2023-04-21T16:01:56.701Z,22.10
2023-04-21T16:04:24.742Z,22.00
2023-04-21T16:06:52.770Z,22.00
2023-04-21T16:09:21.553Z,21.90
2023-04-21T16:11:51.318Z,21.60
2023-04-21T16:14:19.710Z,21.30
2023-04-21T16:16:47.560Z,21.00
2023-04-21T16:19:16.255Z,21.00
2023-04-21T16:21:44.510Z,20.80
2023-04-21T16:24:12.554Z,20.60
2023-04-21T16:26:41.273Z,20.60
2023-04-21T16:29:10.558Z,20.50
2023-04-21T16:31:38.429Z,20.30
2023-04-21T16:34:06.246Z,20.10
2023-04-21T16:36:34.582Z,20.00
2023-04-21T16:39:02.542Z,19.90
2023-04-21T16:41:30.809Z,19.70
2023-04-21T16:43:58.827Z,19.50
2023-04-21T16:46:28.024Z,19.40
2023-04-21T16:48:56.030Z,19.40
2023-04-21T16:51:26.090Z,19.30
2023-04-21T16:53:54.603Z,19.20
2023-04-21T16:56:22.549Z,19.20
2023-04-21T16:58:50.475Z,19.10
2023-04-21T17:01:18.320Z,19.00
2023-04-21T17:03:47.564Z,19.00
2023-04-21T17:06:19.423Z,18.80
2023-04-21T17:08:47.301Z,18.80
2023-04-21T17:11:15.195Z,18.70
2023-04-21T17:13:43.022Z,18.50
2023-04-21T17:16:11.086Z,18.40
2023-04-21T17:18:38.964Z,18.40
2023-04-21T17:21:08.158Z,18.40
2023-04-21T17:23:36.158Z,18.30
2023-04-21T17:26:05.066Z,18.30
2023-04-21T17:28:33.502Z,18.30
2023-04-21T17:31:13.745Z,18.30
2023-04-21T17:33:43.410Z,18.30
2023-04-21T17:36:13.663Z,18.20
2023-04-21T17:38:42.574Z,18.10
2023-04-21T17:41:10.605Z,18.10
2023-04-21T17:43:38.444Z,18.10
2023-04-21T17:46:07.355Z,18.10
2023-04-21T17:48:35.328Z,18.10
2023-04-21T17:51:03.937Z,18.10
2023-04-21T17:53:33.203Z,18.10
2023-04-21T17:56:01.034Z,17.90
2023-04-21T17:58:29.251Z,17.50
2023-04-21T18:00:57.108Z,17.10
2023-04-21T18:03:25.155Z,16.70
2023-04-21T18:05:53.192Z,16.40
2023-04-21T18:08:21.683Z,15.90
2023-04-21T18:10:50.826Z,15.40
2023-04-21T18:13:18.635Z,15.10
2023-04-21T18:15:46.457Z,15.00
2023-04-21T18:18:14.329Z,14.80
2023-04-21T18:20:42.179Z,14.60
2023-04-21T18:23:10.025Z,14.50
2023-04-21T18:25:42.764Z,14.30
2023-04-21T18:28:12.828Z,14.10
2023-04-21T18:30:41.256Z,13.90
2023-04-21T18:33:09.567Z,13.70
2023-04-21T18:35:37.489Z,13.60
2023-04-21T18:38:07.810Z,13.60
2023-04-21T18:40:37.015Z,13.70
2023-04-21T18:43:05.262Z,13.70
2023-04-21T18:45:34.913Z,13.80
2023-04-21T18:48:02.816Z,13.80
2023-04-21T18:50:32.271Z,13.40
2023-04-21T18:53:00.478Z,13.30
2023-04-21T18:55:28.367Z,13.10
2023-04-21T18:57:56.181Z,13.00
2023-04-21T19:00:24.115Z,12.80
2023-04-21T19:02:53.614Z,12.80
2023-04-21T19:05:21.627Z,12.90
2023-04-21T19:07:49.394Z,13.00
2023-04-21T19:10:17.328Z,13.10
2023-04-21T19:12:45.247Z,13.20
2023-04-21T19:15:13.437Z,13.20
2023-04-21T19:17:41.658Z,13.10
2023-04-21T19:20:12.655Z,13.10
2023-04-21T19:22:40.541Z,13.10
2023-04-21T19:25:08.900Z,13.30
2023-04-21T19:27:37.216Z,13.30
2023-04-21T19:30:05.987Z,13.50
2023-04-21T19:32:33.891Z,13.60
2023-04-21T19:35:02.315Z,13.70
2023-04-21T19:37:33.599Z,13.70
2023-04-21T19:40:03.111Z,13.80
2023-04-21T19:42:31.456Z,13.90
2023-04-21T19:44:59.246Z,13.90
2023-04-21T19:47:27.150Z,13.80
2023-04-21T19:49:55.017Z,13.60
2023-04-21T19:52:22.793Z,13.60
2023-04-21T19:54:51.925Z,13.60
2023-04-21T19:57:19.912Z,13.60
2023-04-21T19:59:48.968Z,13.70
2023-04-21T20:02:17.029Z,13.70
2023-04-21T20:04:45.128Z,13.70
2023-04-21T20:07:13.096Z,13.70
2023-04-21T20:09:41.034Z,13.70
2023-04-21T20:12:10.392Z,13.70
2023-04-21T20:14:38.785Z,13.50
2023-04-21T20:17:06.621Z,13.50
2023-04-21T20:19:35.559Z,13.40
2023-04-21T20:22:03.790Z,13.50
2023-04-21T20:24:31.675Z,13.50
2023-04-21T20:26:59.826Z,13.40
2023-04-21T20:29:28.995Z,13.30
2023-04-21T20:31:57.292Z,12.90
2023-04-21T20:34:25.571Z,12.70
2023-04-21T20:36:54.453Z,12.50
2023-04-21T20:39:22.356Z,12.50
2023-04-21T20:42:01.008Z,12.60
2023-04-21T20:44:38.666Z,12.60
2023-04-21T20:47:08.143Z,12.60
2023-04-21T20:49:36.510Z,12.70
2023-04-21T20:52:04.439Z,12.70
2023-04-21T20:54:34.475Z,12.70
2023-04-21T20:57:02.747Z,12.80
2023-04-21T20:59:30.642Z,12.80
2023-04-21T21:01:59.832Z,12.90
2023-04-21T21:04:27.925Z,12.70
2023-04-21T21:06:56.005Z,12.60
2023-04-21T21:09:23.817Z,12.30
2023-04-21T21:11:51.693Z,12.30
2023-04-21T21:14:19.551Z,12.40
2023-04-21T21:16:47.508Z,12.50
2023-04-21T21:19:16.732Z,12.50
2023-04-21T21:21:44.546Z,12.60
2023-04-21T21:24:12.476Z,12.70
2023-04-21T21:26:42.685Z,12.70
2023-04-21T21:29:10.778Z,12.70
2023-04-21T21:31:38.877Z,12.60
2023-04-21T21:34:06.724Z,12.50
2023-04-21T21:36:36.119Z,12.50
2023-04-21T21:39:03.993Z,12.50
2023-04-21T21:41:31.810Z,12.50
2023-04-21T21:43:59.756Z,12.40
2023-04-21T21:46:27.636Z,12.50
2023-04-21T21:48:55.531Z,12.50
2023-04-21T21:51:23.353Z,12.50
2023-04-21T21:53:52.546Z,12.50
2023-04-21T21:56:20.379Z,12.50
2023-04-21T21:58:48.451Z,12.60
2023-04-21T22:01:18.141Z,12.60
2023-04-21T22:03:47.226Z,12.50
2023-04-21T22:06:17.211Z,12.50
2023-04-21T22:08:45.519Z,12.50
2023-04-21T22:11:14.762Z,12.50
2023-04-21T22:13:42.588Z,12.40
2023-04-21T22:16:10.424Z,12.40
2023-04-21T22:18:38.333Z,12.30
2023-04-21T22:21:06.239Z,12.30
2023-04-21T22:23:34.089Z,12.30
2023-04-21T22:26:02.062Z,12.30
2023-04-21T22:28:31.239Z,12.40
2023-04-21T22:30:59.120Z,12.40
2023-04-21T22:33:26.937Z,12.40
2023-04-21T22:35:54.790Z,12.50
2023-04-21T22:38:22.657Z,12.50
2023-04-21T22:40:50.468Z,12.50
2023-04-21T22:43:18.319Z,12.40
2023-04-21T22:45:48.206Z,12.40
2023-04-21T22:48:16.976Z,12.50
2023-04-21T22:50:44.827Z,12.50
2023-04-21T22:53:13.367Z,12.50
2023-04-21T22:55:41.215Z,12.60
2023-04-21T22:58:09.117Z,12.50
2023-04-21T23:00:36.995Z,12.50
2023-04-21T23:03:06.478Z,12.60
2023-04-21T23:05:34.532Z,12.60
2023-04-21T23:08:03.011Z,12.50
2023-04-21T23:10:30.830Z,12.50
2023-04-21T23:12:59.850Z,12.50
2023-04-21T23:15:29.362Z,12.50
2023-04-21T23:17:57.175Z,12.50
2023-04-21T23:20:26.880Z,12.60
2023-04-21T23:22:54.766Z,12.50
2023-04-21T23:25:22.654Z,12.60
2023-04-21T23:27:50.522Z,12.50
2023-04-21T23:30:18.603Z,12.50
2023-04-21T23:32:46.670Z,12.50
2023-04-21T23:35:14.514Z,12.50
2023-04-21T23:37:43.695Z,12.50
2023-04-21T23:40:12.562Z,12.50
2023-04-21T23:42:40.724Z,12.50
2023-04-21T23:45:11.115Z,12.40
2023-04-21T23:47:38.998Z,12.30
2023-04-21T23:50:08.007Z,12.30
2023-04-21T23:52:36.097Z,12.30
2023-04-21T23:55:06.015Z,12.30
2023-04-21T23:57:33.793Z,12.40
